createdAt,value
2019-04-10T00:01:23.756Z,6.18
2019-04-10T00:04:28.031Z,6.20
2019-04-10T00:07:31.183Z,6.20
2019-04-10T00:10:34.748Z,6.14
2019-04-10T00:13:36.636Z,6.10
2019-04-10T00:16:40.499Z,6.04
2019-04-10T00:19:43.555Z,5.98
2019-04-10T00:22:46.559Z,6.00
2019-04-10T00:25:48.889Z,6.05
2019-04-10T00:28:51.823Z,5.99
2019-04-10T00:31:54.253Z,5.94
2019-04-10T00:34:56.248Z,5.95
2019-04-10T00:37:58.206Z,5.96
2019-04-10T00:41:00.112Z,5.89
2019-04-10T00:44:02.083Z,5.85
2019-04-10T00:47:04.470Z,5.84
2019-04-10T00:50:06.583Z,5.82
2019-04-10T00:53:08.590Z,5.77
2019-04-10T00:56:10.641Z,5.78
2019-04-10T00:59:12.533Z,5.75
2019-04-10T01:02:14.520Z,5.65
2019-04-10T01:05:19.357Z,5.60
2019-04-10T01:08:21.600Z,5.57
2019-04-10T01:11:23.544Z,5.55
2019-04-10T01:14:25.550Z,5.49
2019-04-10T01:17:28.440Z,5.52
2019-04-10T01:20:31.321Z,5.52
2019-04-10T01:23:33.584Z,5.47
2019-04-10T01:26:35.582Z,5.47
2019-04-10T01:29:37.785Z,5.44
2019-04-10T01:32:39.945Z,5.41
2019-04-10T01:35:42.598Z,5.45
2019-04-10T01:38:46.064Z,5.35
2019-04-10T01:41:48.386Z,5.32
2019-04-10T01:44:51.194Z,5.31
2019-04-10T01:47:53.803Z,5.34
2019-04-10T01:50:55.701Z,5.34
2019-04-10T01:53:58.499Z,5.29
2019-04-10T01:57:00.864Z,5.20
2019-04-10T02:00:05.384Z,5.23
2019-04-10T02:03:07.723Z,5.11
2019-04-10T02:06:09.770Z,5.11
2019-04-10T02:09:12.710Z,5.12
2019-04-10T02:12:15.125Z,5.11
2019-04-10T02:15:17.756Z,5.08
2019-04-10T02:18:19.870Z,5.08
2019-04-10T02:21:21.880Z,5.11
2019-04-10T02:24:25.276Z,5.12
2019-04-10T02:27:27.312Z,5.13
2019-04-10T02:30:30.291Z,5.05
2019-04-10T02:33:33.586Z,5.05
2019-04-10T02:36:36.233Z,5.02
2019-04-10T02:39:45.808Z,4.96
2019-04-10T02:42:43.275Z,4.90
2019-04-10T02:45:49.216Z,4.89
2019-04-10T02:48:51.977Z,4.92
2019-04-10T02:51:54.995Z,4.96
2019-04-10T02:54:57.863Z,4.89
2019-04-10T02:58:00.829Z,4.93
2019-04-10T03:01:03.652Z,4.86
2019-04-10T03:04:05.712Z,4.83
2019-04-10T03:07:09.536Z,4.82
2019-04-10T03:10:21.758Z,4.77
2019-04-10T03:13:17.783Z,4.70
2019-04-10T03:16:20.032Z,4.62
2019-04-10T03:19:21.989Z,4.60
2019-04-10T03:22:26.360Z,4.59
2019-04-10T03:25:28.959Z,4.55
2019-04-10T03:28:32.036Z,4.55
2019-04-10T03:31:34.558Z,4.56
2019-04-10T03:34:40.713Z,4.54
2019-04-10T03:37:40.649Z,4.51
2019-04-10T03:40:43.719Z,4.54
2019-04-10T03:43:46.009Z,4.49
2019-04-10T03:46:48.993Z,4.54
2019-04-10T03:49:51.946Z,4.53
2019-04-10T03:52:54.037Z,4.54
2019-04-10T03:55:56.997Z,4.55
2019-04-10T03:58:59.911Z,4.54
2019-04-10T04:02:03.090Z,4.54
2019-04-10T04:05:06.515Z,4.57
2019-04-10T04:08:09.027Z,4.61
2019-04-10T04:11:11.043Z,4.59
2019-04-10T04:14:12.965Z,4.58
2019-04-10T04:17:15.764Z,4.55
2019-04-10T04:20:19.068Z,4.57
2019-04-10T04:23:21.499Z,4.60
2019-04-10T04:26:23.789Z,4.63
2019-04-10T04:29:26.803Z,4.63
2019-04-10T04:32:29.427Z,4.59
2019-04-10T04:35:31.388Z,4.59
2019-04-10T04:38:34.408Z,4.54
2019-04-10T04:41:36.590Z,4.49
2019-04-10T04:44:39.838Z,4.52
2019-04-10T04:47:41.790Z,4.54
2019-04-10T04:50:44.314Z,4.61
2019-04-10T04:53:46.269Z,4.58
2019-04-10T04:56:48.412Z,4.62
2019-04-10T04:59:50.571Z,4.65
2019-04-10T05:02:53.701Z,4.62
2019-04-10T05:05:56.184Z,4.69
2019-04-10T05:08:59.251Z,4.81
2019-04-10T05:12:01.327Z,4.87
2019-04-10T05:15:05.299Z,4.85
2019-04-10T05:18:07.227Z,4.74
2019-04-10T05:21:09.195Z,4.69
2019-04-10T05:24:12.276Z,4.68
2019-04-10T05:27:14.307Z,4.70
2019-04-10T05:30:16.479Z,4.68
2019-04-10T05:33:18.802Z,4.58
2019-04-10T05:36:21.635Z,4.60
2019-04-10T05:39:24.467Z,4.59
2019-04-10T05:42:28.991Z,4.63
2019-04-10T05:45:31.849Z,4.63
2019-04-10T05:48:34.013Z,4.65
2019-04-10T05:51:35.973Z,4.74
2019-04-10T05:54:37.932Z,4.77
2019-04-10T05:57:40.645Z,4.69
2019-04-10T06:00:43.057Z,4.62
2019-04-10T06:03:45.758Z,4.66
2019-04-10T06:06:48.513Z,4.68
2019-04-10T06:09:57.788Z,4.68
2019-04-10T06:12:55.257Z,4.72
2019-04-10T06:15:57.260Z,4.77
2019-04-10T06:18:59.779Z,4.85
2019-04-10T06:22:02.958Z,4.89
2019-04-10T06:25:07.912Z,4.96
2019-04-10T06:28:09.492Z,4.97
2019-04-10T06:31:12.503Z,4.99
2019-04-10T06:34:18.306Z,5.06
2019-04-10T06:37:18.892Z,5.19
2019-04-10T06:40:24.220Z,5.29
2019-04-10T06:43:25.219Z,5.32
2019-04-10T06:46:28.419Z,5.31
2019-04-10T06:49:31.123Z,5.38
2019-04-10T06:52:34.499Z,5.45
2019-04-10T06:55:36.721Z,5.45
2019-04-10T06:58:38.732Z,5.55
2019-04-10T07:01:49.524Z,5.56
2019-04-10T07:04:52.425Z,5.67
2019-04-10T07:07:54.586Z,5.72
2019-04-10T07:10:59.204Z,5.78
2019-04-10T07:13:57.371Z,5.80
2019-04-10T07:17:05.040Z,5.88
2019-04-10T07:20:05.241Z,5.88
2019-04-10T07:23:07.363Z,5.97
2019-04-10T07:26:10.112Z,6.11
2019-04-10T07:29:15.611Z,6.19
2019-04-10T07:32:16.884Z,6.17
2019-04-10T07:35:20.298Z,6.22
2019-04-10T07:38:23.126Z,6.37
2019-04-10T07:41:27.334Z,6.40
2019-04-10T07:44:29.882Z,6.36
2019-04-10T07:47:31.807Z,6.48
2019-04-10T07:50:34.793Z,6.63
2019-04-10T07:53:37.282Z,6.65
2019-04-10T07:56:39.653Z,6.72
2019-04-10T07:59:41.603Z,6.72
2019-04-10T08:02:43.669Z,6.79
2019-04-10T08:05:46.045Z,6.88
2019-04-10T08:08:49.174Z,6.84
2019-04-10T08:11:51.476Z,6.82
2019-04-10T08:14:54.045Z,6.86
2019-04-10T08:17:56.171Z,6.89
2019-04-10T08:20:59.202Z,6.96
2019-04-10T08:24:02.488Z,7.19
2019-04-10T08:27:05.366Z,7.26
2019-04-10T08:30:10.808Z,7.26
2019-04-10T08:33:12.007Z,7.41
2019-04-10T08:36:17.292Z,7.41
2019-04-10T08:39:35.313Z,7.37
2019-04-10T08:42:26.649Z,7.44
2019-04-10T08:45:40.352Z,7.51
2019-04-10T08:48:33.154Z,7.62
2019-04-10T08:51:35.357Z,7.76
2019-04-10T08:54:38.381Z,8.01
2019-04-10T08:57:41.656Z,8.06
2019-04-10T09:00:44.861Z,8.03
2019-04-10T09:03:46.927Z,7.99
2019-04-10T09:06:51.993Z,8.13
2019-04-10T09:09:54.192Z,8.22
2019-04-10T09:12:57.863Z,8.31
2019-04-10T09:16:00.565Z,8.20
2019-04-10T09:19:03.495Z,8.18
2019-04-10T09:22:05.987Z,8.16
2019-04-10T09:25:09.133Z,8.11
2019-04-10T09:28:11.665Z,8.18
2019-04-10T09:31:13.941Z,8.29
2019-04-10T09:34:16.005Z,8.56
2019-04-10T09:37:18.065Z,8.62
2019-04-10T09:40:20.446Z,8.80
2019-04-10T09:43:23.132Z,8.78
2019-04-10T09:46:25.315Z,8.96
2019-04-10T09:49:35.656Z,8.93
2019-04-10T09:52:32.077Z,8.95
2019-04-10T09:55:34.214Z,9.15
2019-04-10T09:58:36.364Z,9.33
2019-04-10T10:01:38.498Z,9.55
2019-04-10T10:04:41.691Z,9.82
2019-04-10T10:07:43.840Z,9.99
2019-04-10T10:10:47.085Z,10.19
2019-04-10T10:13:50.169Z,10.16
2019-04-10T10:16:52.607Z,10.33
2019-04-10T10:19:55.339Z,10.49
2019-04-10T10:22:57.806Z,10.60
2019-04-10T10:25:59.815Z,10.69
2019-04-10T10:29:02.705Z,10.80
2019-04-10T10:32:04.754Z,10.84
2019-04-10T10:35:07.173Z,10.72
2019-04-10T10:38:10.578Z,10.76
2019-04-10T10:41:13.030Z,10.81
2019-04-10T10:44:15.180Z,10.57
2019-04-10T10:47:17.279Z,10.71
2019-04-10T10:50:19.334Z,11.01
2019-04-10T10:53:24.048Z,11.38
2019-04-10T10:56:26.562Z,11.36
2019-04-10T10:59:29.416Z,11.48
2019-04-10T11:02:31.688Z,11.49
2019-04-10T11:05:35.127Z,11.65
2019-04-10T11:08:37.358Z,11.82
2019-04-10T11:11:40.691Z,11.81
2019-04-10T11:14:43.727Z,12.04
2019-04-10T11:17:46.107Z,12.00
2019-04-10T11:20:48.449Z,11.93
2019-04-10T11:23:50.888Z,12.16
2019-04-10T11:26:54.039Z,12.11
2019-04-10T11:29:57.551Z,11.92
2019-04-10T11:33:00.119Z,11.80
2019-04-10T11:36:03.683Z,12.01
2019-04-10T11:42:12.279Z,12.36
2019-04-10T11:45:17.079Z,12.19
2019-04-10T11:48:20.103Z,12.13
2019-04-10T11:51:23.506Z,12.26
2019-04-10T11:54:28.571Z,11.99
2019-04-10T12:00:45.363Z,11.64
2019-04-10T12:03:44.186Z,11.56
2019-04-10T12:06:47.861Z,11.34
2019-04-10T12:12:52.462Z,11.39
2019-04-10T12:15:54.678Z,11.17
2019-04-10T12:18:57.318Z,11.28
2019-04-10T12:21:59.411Z,11.39
2019-04-10T12:25:01.299Z,11.21
2019-04-10T12:28:03.501Z,11.05
2019-04-10T12:31:06.022Z,10.87
2019-04-10T12:34:08.844Z,10.84
2019-04-10T12:37:11.256Z,10.94
2019-04-10T12:40:13.961Z,11.06
2019-04-10T12:43:16.739Z,11.11
2019-04-10T12:46:19.166Z,11.14
2019-04-10T12:49:21.379Z,11.17
2019-04-10T12:52:23.316Z,11.19
2019-04-10T12:55:26.265Z,11.20
2019-04-10T12:58:28.881Z,11.22
2019-04-10T13:01:32.778Z,11.42
2019-04-10T13:04:35.062Z,11.59
2019-04-10T13:07:37.958Z,11.38
2019-04-10T13:10:40.292Z,11.27
2019-04-10T13:13:42.336Z,11.25
2019-04-10T13:16:44.707Z,11.23
2019-04-10T13:19:46.617Z,11.23
2019-04-10T13:22:48.626Z,11.07
2019-04-10T13:25:58.281Z,10.94
2019-04-10T13:28:56.064Z,10.96
2019-04-10T13:31:59.289Z,11.05
2019-04-10T13:35:03.981Z,10.96
2019-04-10T13:38:06.739Z,10.83
2019-04-10T13:41:10.230Z,10.86
2019-04-10T13:44:12.732Z,10.94
2019-04-10T13:47:15.392Z,10.92
2019-04-10T13:50:18.952Z,10.83
2019-04-10T13:53:21.704Z,10.66
2019-04-10T13:56:25.270Z,10.60
2019-04-10T13:59:27.428Z,10.71
2019-04-10T14:02:34.324Z,10.49
2019-04-10T14:05:36.941Z,10.38
2019-04-10T14:08:58.710Z,10.17
2019-04-10T14:11:43.671Z,10.21
2019-04-10T14:14:45.826Z,10.21
2019-04-10T14:17:48.119Z,9.99
2019-04-10T14:20:51.249Z,9.95
2019-04-10T14:23:53.719Z,9.90
2019-04-10T14:27:03.649Z,9.91
2019-04-10T14:30:09.363Z,9.78
2019-04-10T14:33:11.469Z,9.60
2019-04-10T14:36:13.881Z,9.52
2019-04-10T14:39:19.396Z,9.55
2019-04-10T14:42:20.324Z,9.56
2019-04-10T14:45:23.536Z,9.62
2019-04-10T14:48:25.619Z,9.56
2019-04-10T14:51:28.331Z,9.52
2019-04-10T14:54:30.450Z,9.53
2019-04-10T14:57:32.470Z,9.48
2019-04-10T15:00:46.651Z,9.46
2019-04-10T15:03:48.910Z,9.51
2019-04-10T15:06:51.770Z,9.44
2019-04-10T15:09:54.835Z,9.30
2019-04-10T15:13:07.373Z,9.28
2019-04-10T15:16:00.929Z,9.19
2019-04-10T15:19:04.538Z,9.16
2019-04-10T15:22:07.758Z,9.16
2019-04-10T15:25:10.857Z,9.17
2019-04-10T15:28:16.007Z,9.09
2019-04-10T15:31:18.105Z,9.05
2019-04-10T15:34:22.475Z,9.04
2019-04-10T15:37:24.916Z,8.96
2019-04-10T15:40:30.399Z,8.95
2019-04-10T15:43:35.041Z,8.95
2019-04-10T15:46:37.287Z,8.96
2019-04-10T15:49:40.871Z,8.87
2019-04-10T15:52:43.450Z,8.87
2019-04-10T15:55:45.474Z,8.82
2019-04-10T15:58:49.905Z,8.81
2019-04-10T16:01:53.202Z,8.77
2019-04-10T16:04:55.395Z,8.75
2019-04-10T16:07:57.296Z,8.75
2019-04-10T16:11:01.572Z,8.75
2019-04-10T16:14:16.891Z,8.74
2019-04-10T16:17:22.875Z,8.66
2019-04-10T16:20:31.565Z,8.77
2019-04-10T16:23:52.337Z,8.77
2019-04-10T16:26:54.300Z,8.74
2019-04-10T16:29:56.628Z,8.66
2019-04-10T16:32:59.058Z,8.62
2019-04-10T16:36:01.088Z,8.55
2019-04-10T16:39:06.529Z,8.57
2019-04-10T16:42:12.648Z,8.56
2019-04-10T16:45:18.863Z,8.53
2019-04-10T16:48:24.637Z,8.50
2019-04-10T16:51:28.123Z,8.45
2019-04-10T16:54:31.801Z,8.39
2019-04-10T16:57:34.715Z,8.33
2019-04-10T17:00:37.727Z,8.33
2019-04-10T17:03:40.182Z,8.29
2019-04-10T17:06:42.189Z,8.27
2019-04-10T17:09:45.470Z,8.21
2019-04-10T17:12:48.235Z,8.17
2019-04-10T17:15:53.512Z,8.19
2019-04-10T17:18:55.556Z,8.19
2019-04-10T17:21:58.787Z,8.16
2019-04-10T17:25:02.082Z,8.17
2019-04-10T17:28:05.949Z,8.12
2019-04-10T17:31:09.191Z,8.15
2019-04-10T17:34:11.911Z,8.09
2019-04-10T17:37:15.820Z,8.03
2019-04-10T17:40:30.038Z,8.00
2019-04-10T17:43:23.376Z,7.97
2019-04-10T17:46:26.995Z,7.96
2019-04-10T17:49:29.914Z,7.93
2019-04-10T17:52:34.718Z,7.94
2019-04-10T17:55:35.922Z,7.97
2019-04-10T17:58:43.425Z,7.94
2019-04-10T18:01:47.283Z,7.94
2019-04-10T18:04:50.394Z,7.96
2019-04-10T18:07:52.477Z,7.94
2019-04-10T18:10:57.282Z,7.93
2019-04-10T18:14:02.750Z,7.95
2019-04-10T18:17:09.009Z,7.97
2019-04-10T18:20:12.273Z,7.98
2019-04-10T18:23:17.496Z,7.91
2019-04-10T18:26:21.507Z,7.91
2019-04-10T18:29:23.605Z,7.88
2019-04-10T18:32:25.583Z,7.88
2019-04-10T18:35:27.622Z,7.89
2019-04-10T18:38:33.309Z,7.98
2019-04-10T18:41:36.070Z,7.92
2019-04-10T18:44:39.965Z,7.89
2019-04-10T18:47:44.059Z,7.89
2019-04-10T18:50:48.087Z,7.85
2019-04-10T18:53:51.857Z,7.87
2019-04-10T18:56:53.832Z,7.85
2019-04-10T18:59:58.596Z,7.83
2019-04-10T19:03:05.531Z,7.81
2019-04-10T19:06:20.517Z,7.85
2019-04-10T19:09:28.085Z,7.85
2019-04-10T19:12:32.763Z,7.85
2019-04-10T19:15:39.922Z,7.83
2019-04-10T19:18:43.799Z,7.86
2019-04-10T19:21:48.424Z,7.88
2019-04-10T19:24:50.810Z,7.91
2019-04-10T19:27:53.002Z,7.92
2019-04-10T19:31:09.635Z,7.94
2019-04-10T19:34:01.016Z,7.85
2019-04-10T19:37:04.078Z,7.87
2019-04-10T19:40:08.980Z,7.87
2019-04-10T19:43:13.815Z,7.86
2019-04-10T19:46:17.583Z,7.80
2019-04-10T19:49:19.984Z,7.79
2019-04-10T19:52:22.449Z,7.77
2019-04-10T19:55:24.681Z,7.77
2019-04-10T19:58:26.717Z,7.76
2019-04-10T20:01:31.255Z,7.74
2019-04-10T20:04:32.579Z,7.74
2019-04-10T20:07:35.266Z,7.73
2019-04-10T20:10:37.458Z,7.72
2019-04-10T20:13:39.417Z,7.75
2019-04-10T20:16:43.767Z,7.73
2019-04-10T20:19:49.060Z,7.71
2019-04-10T20:22:56.033Z,7.65
2019-04-10T20:25:58.850Z,7.62
2019-04-10T20:29:04.619Z,7.58
2019-04-10T20:32:07.857Z,7.57
2019-04-10T20:35:11.829Z,7.52
2019-04-10T20:38:17.544Z,7.50
2019-04-10T20:41:20.410Z,7.49
2019-04-10T20:44:22.859Z,7.42
2019-04-10T20:47:25.307Z,7.36
2019-04-10T20:50:27.947Z,7.25
2019-04-10T20:53:29.851Z,7.18
2019-04-10T20:56:32.983Z,7.11
2019-04-10T20:59:36.977Z,7.05
2019-04-10T21:02:39.036Z,6.88
2019-04-10T21:05:40.954Z,6.86
2019-04-10T21:08:42.858Z,6.85
2019-04-10T21:11:57.997Z,6.82
2019-04-10T21:14:48.658Z,6.80
2019-04-10T21:17:50.829Z,6.70
2019-04-10T21:20:53.709Z,6.59
2019-04-10T21:23:56.497Z,6.53
2019-04-10T21:26:59.061Z,6.48
2019-04-10T21:30:03.821Z,6.45
2019-04-10T21:33:16.493Z,6.38
2019-04-10T21:36:20.578Z,6.35
2019-04-10T21:39:22.647Z,6.33
2019-04-10T21:42:26.533Z,6.29
2019-04-10T21:45:29.658Z,6.22
2019-04-10T21:48:32.990Z,6.20
2019-04-10T21:51:35.176Z,6.19
2019-04-10T21:54:47.160Z,6.17
2019-04-10T21:57:40.940Z,6.06
2019-04-10T22:01:01.381Z,5.99
2019-04-10T22:04:06.332Z,5.95
2019-04-10T22:07:26.048Z,5.83
2019-04-10T22:10:34.214Z,5.73
2019-04-10T22:13:36.547Z,5.68
2019-04-10T22:16:38.466Z,5.62
2019-04-10T22:19:40.994Z,5.57
2019-04-10T22:22:43.026Z,5.56
2019-04-10T22:25:45.874Z,5.58
2019-04-10T22:28:47.939Z,5.58
2019-04-10T22:31:49.851Z,5.55
2019-04-10T22:34:52.788Z,5.52
2019-04-10T22:37:54.953Z,5.51
2019-04-10T22:40:57.983Z,5.44
2019-04-10T22:44:01.201Z,5.39
2019-04-10T22:47:03.529Z,5.34
2019-04-10T22:50:05.686Z,5.33
2019-04-10T22:53:08.888Z,5.33
2019-04-10T22:56:10.998Z,5.31
2019-04-10T22:59:13.602Z,5.28
2019-04-10T23:02:16.472Z,5.26
2019-04-10T23:05:18.665Z,5.18
2019-04-10T23:08:20.534Z,5.19
2019-04-10T23:11:34.804Z,5.20
2019-04-10T23:14:26.942Z,5.19
2019-04-10T23:17:29.595Z,5.18
2019-04-10T23:20:32.037Z,5.16
2019-04-10T23:23:34.934Z,5.16
2019-04-10T23:26:37.506Z,5.06
2019-04-10T23:29:40.210Z,5.06
2019-04-10T23:32:42.297Z,5.02
2019-04-10T23:35:45.372Z,5.06
2019-04-10T23:38:49.989Z,5.02
2019-04-10T23:41:53.427Z,5.01
2019-04-10T23:44:55.430Z,4.99
2019-04-10T23:47:58.236Z,4.91
2019-04-10T23:51:00.883Z,4.88
2019-04-10T23:54:03.129Z,4.87
2019-04-10T23:57:05.222Z,4.81
